Time;durP1;ratioP1;P1;durP2;ratioP2;P2;SDS_P1;SDS_P2;PMS_P1;PMS_P2;Temp;Humidity;BMP_temperature;BMP_pressure;BME280_temperature;BME280_humidity;BME280_pressure;Samples;Min_cycle;Max_cycle;Signal;HPM_P1;HPM_P2
2021/11/13 00:01:29;;;;;;;32.33;15.13;;;10.10;99.90;;;;;;4863192;29;20411;-84
2021/11/13 00:03:55;;;;;;;34.25;16.10;;;10.00;99.90;;;;;;4878569;29;20030;-85
2021/11/13 00:06:21;;;;;;;33.25;16.33;;;10.00;99.90;;;;;;4869067;29;20037;-85
2021/11/13 00:08:47;;;;;;;36.60;15.52;;;9.90;99.90;;;;;;4880052;29;20372;-85
2021/11/13 00:11:13;;;;;;;34.55;16.75;;;10.00;99.90;;;;;;4866695;29;20039;-85
2021/11/13 00:13:40;;;;;;;34.22;17.42;;;10.10;99.90;;;;;;4865478;29;20033;-84
2021/11/13 00:16:06;;;;;;;36.28;15.80;;;10.10;99.90;;;;;;4862621;29;20030;-84
2021/11/13 00:18:35;;;;;;;26.90;14.88;;;10.10;99.90;;;;;;4864954;29;20041;-86
2021/11/13 00:21:05;;;;;;;32.38;16.02;;;10.10;99.90;;;;;;4874684;29;20529;-86
2021/11/13 00:23:32;;;;;;;33.55;16.15;;;10.10;99.90;;;;;;4880732;29;20056;-86
2021/11/13 00:25:58;;;;;;;32.85;15.25;;;10.10;99.90;;;;;;4871929;29;20045;-84
2021/11/13 00:28:25;;;;;;;35.55;14.75;;;10.10;99.90;;;;;;4882869;29;20052;-86
2021/11/13 00:30:51;;;;;;;34.17;16.45;;;10.20;99.90;;;;;;4880299;29;20036;-84
2021/11/13 00:33:18;;;;;;;35.20;15.43;;;10.20;99.90;;;;;;4881925;29;20025;-85
2021/11/13 00:35:44;;;;;;;26.60;14.50;;;10.20;99.90;;;;;;4860498;29;20037;-86
2021/11/13 00:38:09;;;;;;;30.48;14.95;;;10.20;99.90;;;;;;4879587;29;20150;-85
2021/11/13 00:40:35;;;;;;;29.15;14.20;;;10.20;99.90;;;;;;4871786;29;20049;-87
2021/11/13 00:43:01;;;;;;;35.40;14.10;;;10.20;99.90;;;;;;4877453;29;20037;-85
2021/11/13 00:45:27;;;;;;;33.42;14.90;;;10.30;99.90;;;;;;4863714;29;20040;-86
2021/11/13 00:47:52;;;;;;;29.98;14.55;;;10.30;99.90;;;;;;4863555;29;20037;-83
2021/11/13 00:50:18;;;;;;;27.50;13.65;;;10.20;99.90;;;;;;4858375;29;20040;-81
2021/11/13 00:52:44;;;;;;;31.67;14.50;;;10.10;99.90;;;;;;4862686;29;20577;-84
2021/11/13 00:55:13;;;;;;;23.52;13.48;;;10.20;99.90;;;;;;4873131;29;20122;-82
2021/11/13 00:57:39;;;;;;;32.13;12.75;;;10.20;99.90;;;;;;4875837;29;20060;-82
2021/11/13 01:00:06;;;;;;;29.92;15.38;;;10.30;99.90;;;;;;4862381;29;20037;-83
2021/11/13 01:02:32;;;;;;;31.77;14.32;;;10.30;99.90;;;;;;4877650;29;20465;-82
2021/11/13 01:04:57;;;;;;;36.08;14.45;;;10.30;99.90;;;;;;4868385;29;20037;-82
2021/11/13 01:07:23;;;;;;;33.80;14.05;;;10.30;99.90;;;;;;4862696;29;20085;-83
2021/11/13 01:09:49;;;;;;;28.23;12.88;;;10.30;99.90;;;;;;4870613;29;20037;-82
2021/11/13 01:12:15;;;;;;;34.05;13.52;;;10.30;99.90;;;;;;4862585;29;20040;-82
2021/11/13 01:14:41;;;;;;;29.58;14.77;;;10.30;99.90;;;;;;4860690;29;20029;-82
2021/11/13 01:17:09;;;;;;;25.60;13.73;;;10.30;99.90;;;;;;4862140;29;20021;-82
2021/11/13 01:19:35;;;;;;;33.78;14.20;;;10.30;99.90;;;;;;4862316;29;20352;-82
2021/11/13 01:22:01;;;;;;;30.27;13.55;;;10.30;99.90;;;;;;4861347;29;20037;-81
2021/11/13 01:24:26;;;;;;;28.55;13.25;;;10.40;99.90;;;;;;4870522;29;20037;-82
2021/11/13 01:26:52;;;;;;;30.80;13.73;;;10.40;99.90;;;;;;4861483;29;20037;-82
2021/11/13 01:29:17;;;;;;;28.30;13.13;;;10.40;99.90;;;;;;4868807;29;20037;-81
2021/11/13 01:31:43;;;;;;;31.70;15.07;;;10.40;99.90;;;;;;4856909;29;20034;-83
2021/11/13 01:34:09;;;;;;;43.63;14.88;;;10.50;99.90;;;;;;4847280;29;20042;-83
2021/11/13 01:36:34;;;;;;;29.38;13.57;;;10.50;99.90;;;;;;4858693;29;20125;-82
2021/11/13 01:39:00;;;;;;;26.67;13.27;;;10.50;99.90;;;;;;4845746;29;20034;-82
2021/11/13 01:41:26;;;;;;;26.65;13.85;;;10.60;99.90;;;;;;4869573;29;20479;-82
2021/11/13 01:43:52;;;;;;;26.35;14.65;;;10.60;99.90;;;;;;4878829;29;20033;-83
2021/11/13 01:46:18;;;;;;;32.67;14.73;;;10.60;99.90;;;;;;4880538;29;20033;-83
2021/11/13 01:48:44;;;;;;;26.38;14.70;;;10.60;99.90;;;;;;4863286;29;20029;-82
2021/11/13 01:51:19;;;;;;;24.60;13.27;;;10.60;99.90;;;;;;4880313;29;20126;-82
2021/11/13 01:53:45;;;;;;;26.05;13.75;;;10.60;99.90;;;;;;4863020;29;20037;-81
2021/11/13 01:56:17;;;;;;;24.98;13.63;;;10.70;99.90;;;;;;4859139;29;20057;-83
2021/11/13 01:58:47;;;;;;;26.58;14.85;;;10.70;99.90;;;;;;4862017;29;20479;-84
2021/11/13 02:01:14;;;;;;;27.23;13.75;;;10.70;99.90;;;;;;4875242;29;20072;-83
2021/11/13 02:03:40;;;;;;;27.33;14.02;;;10.70;99.90;;;;;;4846259;29;20112;-82
2021/11/13 02:06:06;;;;;;;29.65;14.15;;;10.70;99.90;;;;;;4875794;29;20072;-81
2021/11/13 02:08:32;;;;;;;26.73;14.02;;;10.70;99.90;;;;;;4875783;29;20436;-80
2021/11/13 02:10:57;;;;;;;25.83;13.48;;;10.70;99.90;;;;;;4876966;29;20077;-80
2021/11/13 02:13:23;;;;;;;29.98;13.80;;;10.70;99.90;;;;;;4862939;29;20028;-81
2021/11/13 02:15:49;;;;;;;24.70;13.45;;;10.70;99.90;;;;;;4872208;29;20021;-80
2021/11/13 02:18:14;;;;;;;27.52;14.68;;;10.70;99.90;;;;;;4861651;29;20034;-79
2021/11/13 02:20:42;;;;;;;27.90;13.80;;;10.70;99.90;;;;;;4862415;29;20030;-79
2021/11/13 02:23:17;;;;;;;31.88;12.02;;;10.70;99.90;;;;;;4860555;29;20395;-79
2021/11/13 02:25:45;;;;;;;29.45;12.77;;;10.70;99.90;;;;;;4859104;29;20044;-79
2021/11/13 02:28:13;;;;;;;32.00;13.82;;;10.80;99.90;;;;;;4861092;29;20059;-78
2021/11/13 02:30:39;;;;;;;22.52;12.68;;;10.70;99.90;;;;;;4862105;29;20487;-78
2021/11/13 02:33:06;;;;;;;25.05;12.88;;;10.80;99.90;;;;;;4862147;29;20506;-78
2021/11/13 02:35:33;;;;;;;24.70;13.37;;;10.80;99.90;;;;;;4858767;29;20123;-78
2021/11/13 02:38:16;;;;;;;29.63;12.35;;;10.70;99.90;;;;;;4874967;29;20037;-78
2021/11/13 02:40:44;;;;;;;27.85;14.00;;;10.80;99.90;;;;;;4862447;29;20121;-77
2021/11/13 02:43:12;;;;;;;21.10;13.10;;;10.80;99.90;;;;;;4859182;29;20101;-78
2021/11/13 02:45:38;;;;;;;28.80;14.63;;;10.70;99.90;;;;;;4860722;29;20033;-78
2021/11/13 02:48:05;;;;;;;22.75;13.32;;;10.80;99.90;;;;;;4877287;29;20037;-78
2021/11/13 02:50:31;;;;;;;27.80;13.57;;;10.80;99.90;;;;;;4878162;29;20259;-78
2021/11/13 02:52:59;;;;;;;29.90;14.77;;;10.80;99.90;;;;;;4878487;29;20021;-78
2021/11/13 02:55:25;;;;;;;23.55;13.45;;;10.80;99.90;;;;;;4861901;29;20410;-76
2021/11/13 02:57:51;;;;;;;29.88;13.82;;;10.90;99.90;;;;;;4879586;29;20036;-76
2021/11/13 03:00:20;;;;;;;22.90;13.32;;;10.90;99.90;;;;;;4877535;29;20029;-76
2021/11/13 03:02:46;;;;;;;28.17;14.60;;;10.90;99.90;;;;;;4875100;29;20034;-75
2021/11/13 03:05:22;;;;;;;32.53;16.08;;;10.90;99.90;;;;;;4858642;29;20525;-74
2021/11/13 03:07:48;;;;;;;23.70;13.27;;;10.90;99.90;;;;;;4866599;29;20472;-75
2021/11/13 03:10:15;;;;;;;24.40;13.95;;;11.00;99.90;;;;;;4862419;29;20061;-76
2021/11/13 03:12:41;;;;;;;29.27;14.40;;;11.00;99.90;;;;;;4869339;29;20495;-76
2021/11/13 03:15:13;;;;;;;28.50;14.23;;;11.00;99.90;;;;;;4869540;29;20033;-76
2021/11/13 03:17:38;;;;;;;29.27;13.73;;;11.00;99.90;;;;;;4864041;29;20037;-76
2021/11/13 03:20:06;;;;;;;27.75;14.38;;;11.00;99.90;;;;;;4864197;29;20051;-76
2021/11/13 03:22:33;;;;;;;30.67;13.52;;;11.00;99.90;;;;;;4851446;29;20427;-75
2021/11/13 03:24:59;;;;;;;23.02;12.90;;;11.00;99.90;;;;;;4881988;29;20029;-76
2021/11/13 03:27:26;;;;;;;26.00;13.60;;;11.00;99.90;;;;;;4874037;29;20108;-76
2021/11/13 03:29:54;;;;;;;24.33;13.38;;;11.00;99.90;;;;;;4875680;29;20554;-74
2021/11/13 03:32:20;;;;;;;;;;;10.90;99.90;;;;;;4865398;29;20064;-76
2021/11/13 03:34:46;;;;;;;23.98;13.00;;;11.00;99.90;;;;;;4879179;29;20376;-76
2021/11/13 03:37:13;;;;;;;27.23;13.90;;;10.90;99.90;;;;;;4879960;29;20033;-76
2021/11/13 03:39:39;;;;;;;30.27;15.07;;;10.90;99.90;;;;;;4861442;29;20042;-76
2021/11/13 03:42:05;;;;;;;26.52;14.50;;;11.00;99.90;;;;;;4864256;29;20045;-76
2021/11/13 03:44:31;;;;;;;27.40;14.27;;;10.90;99.90;;;;;;4866214;29;20049;-76
2021/11/13 03:46:56;;;;;;;28.65;14.90;;;10.90;99.90;;;;;;4881777;29;20040;-77
2021/11/13 03:49:22;;;;;;;31.85;13.82;;;11.00;99.90;;;;;;4854123;29;20037;-75
2021/11/13 03:51:47;;;;;;;31.00;14.93;;;11.00;99.90;;;;;;4869681;29;20049;-76
2021/11/13 03:54:13;;;;;;;29.90;14.90;;;11.10;99.90;;;;;;4877334;29;20116;-75
2021/11/13 03:56:39;;;;;;;33.58;14.82;;;11.00;99.90;;;;;;4871522;29;20360;-75
2021/11/13 03:59:06;;;;;;;25.67;14.05;;;11.10;99.90;;;;;;4864867;29;20501;-76
2021/11/13 04:01:34;;;;;;;28.52;13.30;;;11.00;99.90;;;;;;4881143;29;20056;-76
2021/11/13 04:04:00;;;;;;;34.20;14.82;;;11.10;99.90;;;;;;4874996;29;20029;-75
2021/11/13 04:06:26;;;;;;;30.35;13.30;;;11.10;99.90;;;;;;4863922;29;20525;-75
2021/11/13 04:08:52;;;;;;;24.23;13.55;;;11.00;99.90;;;;;;4877969;29;20041;-76
2021/11/13 04:11:17;;;;;;;29.90;13.85;;;11.00;99.90;;;;;;4881224;29;20044;-77
2021/11/13 04:13:43;;;;;;;29.73;14.13;;;11.00;99.90;;;;;;4861380;29;20057;-76
2021/11/13 04:16:09;;;;;;;27.90;12.63;;;11.00;99.90;;;;;;4877706;29;20027;-76
2021/11/13 04:18:34;;;;;;;30.27;13.02;;;11.10;99.90;;;;;;4860482;29;20075;-76
2021/11/13 04:21:01;;;;;;;27.55;13.27;;;11.10;99.90;;;;;;4876525;29;20510;-77
2021/11/13 04:23:26;;;;;;;32.97;14.82;;;11.20;99.90;;;;;;4862685;29;20124;-77
2021/11/13 04:25:52;;;;;;;30.25;14.07;;;11.10;99.90;;;;;;4863604;29;20499;-78
2021/11/13 04:28:18;;;;;;;29.10;12.63;;;11.10;99.90;;;;;;4880548;29;20037;-77
2021/11/13 04:30:44;;;;;;;27.67;13.10;;;11.10;99.90;;;;;;4861130;29;20029;-77
2021/11/13 04:33:09;;;;;;;26.95;12.60;;;11.10;99.90;;;;;;4862431;29;20432;-76
2021/11/13 04:35:47;;;;;;;25.00;13.00;;;11.10;99.90;;;;;;4868191;29;20108;-77
2021/11/13 04:38:13;;;;;;;30.35;13.23;;;11.10;99.90;;;;;;4857159;29;20116;-77
2021/11/13 04:40:39;;;;;;;32.75;13.10;;;11.10;99.90;;;;;;4878488;29;20526;-76
2021/11/13 04:43:05;;;;;;;34.65;12.55;;;11.20;99.90;;;;;;4880378;29;20081;-75
2021/11/13 04:45:30;;;;;;;21.85;11.93;;;11.20;99.90;;;;;;4877639;29;20396;-76
2021/11/13 04:47:56;;;;;;;21.77;12.02;;;11.20;99.90;;;;;;4863364;29;20077;-76
2021/11/13 04:50:24;;;;;;;27.80;12.20;;;11.20;99.90;;;;;;4870598;29;20033;-76
2021/11/13 04:52:50;;;;;;;;;;;11.20;99.90;;;;;;4880819;29;20482;-77
2021/11/13 04:55:17;;;;;;;21.33;10.35;;;11.20;99.90;;;;;;4880315;29;19918;-77
2021/11/13 04:57:43;;;;;;;19.17;9.25;;;11.20;99.90;;;;;;4880008;29;20550;-77
2021/11/13 05:00:12;;;;;;;17.80;9.05;;;11.20;99.90;;;;;;4863651;29;20025;-77
2021/11/13 05:02:38;;;;;;;15.80;9.07;;;11.20;99.90;;;;;;4871836;29;20502;-77
2021/11/13 05:05:04;;;;;;;15.05;7.90;;;11.20;99.90;;;;;;4880525;29;20037;-78
2021/11/13 05:07:30;;;;;;;14.88;8.93;;;11.20;99.90;;;;;;4875769;29;20037;-78
2021/11/13 05:09:55;;;;;;;14.57;8.82;;;11.20;99.90;;;;;;4873605;29;20033;-77
2021/11/13 05:12:21;;;;;;;20.98;9.95;;;11.30;99.90;;;;;;4862654;29;20564;-78
2021/11/13 05:14:47;;;;;;;16.90;9.13;;;11.20;99.90;;;;;;4859814;29;20043;-78
2021/11/13 05:17:13;;;;;;;23.27;9.98;;;11.20;99.90;;;;;;4863260;29;20032;-78
2021/11/13 05:19:39;;;;;;;15.25;8.98;;;11.20;99.90;;;;;;4860186;29;20065;-78
2021/11/13 05:22:06;;;;;;;17.48;9.18;;;11.20;99.90;;;;;;4865875;29;20546;-78
2021/11/13 05:24:33;;;;;;;16.10;8.77;;;11.20;99.90;;;;;;4863361;29;20029;-77
2021/11/13 05:26:58;;;;;;;18.73;8.93;;;11.30;99.90;;;;;;4879928;29;20033;-77
2021/11/13 05:29:24;;;;;;;17.73;8.77;;;11.20;99.90;;;;;;4875138;29;20491;-77
2021/11/13 05:31:50;;;;;;;21.02;8.80;;;11.30;99.90;;;;;;4863024;29;20029;-77
2021/11/13 05:34:15;;;;;;;13.75;8.00;;;11.30;99.90;;;;;;4863462;29;20029;-77
2021/11/13 05:36:41;;;;;;;12.50;8.23;;;11.20;99.90;;;;;;4861232;29;20443;-78
2021/11/13 05:39:07;;;;;;;17.13;8.85;;;11.20;99.90;;;;;;4859351;29;20105;-78
2021/11/13 05:41:34;;;;;;;13.18;8.10;;;11.30;99.90;;;;;;4859930;29;20040;-79
2021/11/13 05:44:01;;;;;;;15.77;7.97;;;11.30;99.90;;;;;;4860422;29;20372;-76
2021/11/13 05:46:26;;;;;;;23.15;8.90;;;11.30;99.90;;;;;;4880072;29;20036;-77
2021/11/13 05:48:52;;;;;;;14.70;8.77;;;11.30;99.90;;;;;;4869179;29;20037;-76
2021/11/13 05:51:19;;;;;;;24.02;10.15;;;11.30;99.90;;;;;;4861982;29;20120;-76
2021/11/13 05:53:45;;;;;;;25.13;8.65;;;11.30;99.90;;;;;;4847199;29;20025;-76
2021/11/13 05:56:11;;;;;;;17.33;8.68;;;11.30;99.90;;;;;;4850860;29;20546;-75
2021/11/13 05:58:36;;;;;;;19.73;10.35;;;11.30;99.90;;;;;;4862516;29;20025;-78
2021/11/13 06:01:02;;;;;;;16.63;8.32;;;11.30;99.90;;;;;;4871458;29;20197;-79
2021/11/13 06:03:28;;;;;;;26.27;10.57;;;11.30;99.90;;;;;;4862189;29;20041;-77
2021/11/13 06:05:54;;;;;;;18.08;8.95;;;11.30;99.90;;;;;;4879079;29;20063;-77
2021/11/13 06:08:19;;;;;;;21.38;9.32;;;11.30;99.90;;;;;;4862191;29;20483;-77
2021/11/13 06:10:45;;;;;;;19.90;10.30;;;11.30;99.90;;;;;;4869316;29;20104;-78
2021/11/13 06:13:10;;;;;;;20.38;10.55;;;11.30;99.90;;;;;;4860786;29;20072;-77
2021/11/13 06:15:36;;;;;;;23.75;10.35;;;11.40;99.90;;;;;;4873362;29;20041;-77
2021/11/13 06:18:02;;;;;;;20.35;10.52;;;11.40;99.90;;;;;;4862033;29;20055;-77
2021/11/13 06:20:28;;;;;;;23.88;10.27;;;11.30;99.90;;;;;;4878744;29;20053;-78
2021/11/13 06:22:54;;;;;;;23.23;10.98;;;11.30;99.90;;;;;;4878496;29;20103;-78
2021/11/13 06:25:20;;;;;;;21.90;9.65;;;11.40;99.90;;;;;;4878724;29;20049;-76
2021/11/13 06:27:46;;;;;;;28.70;10.20;;;11.40;99.90;;;;;;4881348;29;20024;-77
2021/11/13 06:30:14;;;;;;;20.30;9.73;;;11.30;99.90;;;;;;4868973;29;20040;-78
2021/11/13 06:32:40;;;;;;;19.25;9.57;;;11.40;99.90;;;;;;4877476;29;20116;-78
2021/11/13 06:35:08;;;;;;;20.67;9.77;;;11.40;99.90;;;;;;4862019;29;20417;-78
2021/11/13 06:37:34;;;;;;;31.92;10.23;;;11.30;99.90;;;;;;4861801;29;20029;-78
2021/11/13 06:40:00;;;;;;;19.38;9.43;;;11.30;99.90;;;;;;4861988;29;20542;-78
2021/11/13 06:42:26;;;;;;;17.83;9.32;;;11.40;99.90;;;;;;4864523;29;20181;-78
2021/11/13 06:44:51;;;;;;;18.10;8.18;;;11.40;99.90;;;;;;4882198;29;20037;-77
2021/11/13 06:47:17;;;;;;;23.42;10.50;;;11.40;99.90;;;;;;4866093;29;20025;-78
2021/11/13 06:49:43;;;;;;;21.70;9.68;;;11.40;99.90;;;;;;4866126;29;20037;-79
2021/11/13 06:52:08;;;;;;;16.35;9.20;;;11.40;99.90;;;;;;4862707;29;20044;-77
2021/11/13 06:54:34;;;;;;;22.50;9.15;;;11.40;99.90;;;;;;4882197;29;20048;-77
2021/11/13 06:57:00;;;;;;;23.83;10.48;;;11.40;99.90;;;;;;4865435;29;20041;-78
2021/11/13 06:59:25;;;;;;;18.02;9.45;;;11.40;99.90;;;;;;4863370;29;20446;-77
2021/11/13 07:01:52;;;;;;;21.65;9.98;;;11.50;99.90;;;;;;4867624;29;20499;-77
2021/11/13 07:04:17;;;;;;;21.92;9.50;;;11.50;99.90;;;;;;4881850;29;20402;-77
2021/11/13 07:06:43;;;;;;;20.65;9.85;;;11.50;99.90;;;;;;4874072;29;20031;-78
2021/11/13 07:09:08;;;;;;;20.67;9.63;;;11.50;99.90;;;;;;4880796;29;20040;-79
2021/11/13 07:11:34;;;;;;;24.42;9.75;;;11.50;99.90;;;;;;4878473;29;20045;-78
2021/11/13 07:14:00;;;;;;;15.57;8.95;;;11.50;99.90;;;;;;4882477;29;20032;-78
2021/11/13 07:16:25;;;;;;;23.23;9.23;;;11.50;99.90;;;;;;4882122;29;20101;-79
2021/11/13 07:18:53;;;;;;;22.65;9.20;;;11.50;99.90;;;;;;4865365;29;20053;-77
2021/11/13 07:21:19;;;;;;;20.27;9.48;;;11.50;99.90;;;;;;4865187;29;20034;-78
2021/11/13 07:23:45;;;;;;;22.08;8.70;;;11.50;99.90;;;;;;4862118;29;20040;-78
2021/11/13 07:26:13;;;;;;;20.73;8.75;;;11.50;99.90;;;;;;4875427;29;20435;-78
2021/11/13 07:31:10;;;;;;;16.70;7.82;;;11.60;99.90;;;;;;4880997;29;20119;-77
2021/11/13 07:33:36;;;;;;;18.10;8.75;;;11.60;99.90;;;;;;4877518;29;20101;-77
2021/11/13 07:36:02;;;;;;;18.98;8.27;;;11.60;99.90;;;;;;4877256;29;20100;-78
2021/11/13 07:38:28;;;;;;;17.33;8.23;;;11.60;99.90;;;;;;4863674;29;20395;-78
2021/11/13 07:40:53;;;;;;;15.63;7.80;;;11.60;99.90;;;;;;4875195;29;20049;-78
2021/11/13 07:43:19;;;;;;;20.77;8.43;;;11.60;99.90;;;;;;4864577;29;20025;-78
2021/11/13 07:45:45;;;;;;;15.32;6.93;;;11.60;99.90;;;;;;4881248;29;20037;-77
2021/11/13 07:48:11;;;;;;;22.77;8.35;;;11.60;99.90;;;;;;4861616;29;20041;-78
2021/11/13 07:50:38;;;;;;;13.07;6.80;;;11.60;99.90;;;;;;4877821;29;20043;-78
2021/11/13 07:53:05;;;;;;;15.27;6.88;;;11.60;99.90;;;;;;4870259;29;20013;-78
2021/11/13 07:55:32;;;;;;;17.83;7.70;;;11.70;99.90;;;;;;4865089;29;20029;-77
2021/11/13 07:57:58;;;;;;;17.17;7.57;;;11.70;99.90;;;;;;4861469;29;20507;-78
2021/11/13 08:00:26;;;;;;;13.70;6.20;;;11.80;99.90;;;;;;4864150;29;20025;-77
2021/11/13 08:02:52;;;;;;;;;;;11.80;99.90;;;;;;4865034;29;20403;-78
2021/11/13 08:05:18;;;;;;;15.23;6.65;;;11.80;99.90;;;;;;4864696;29;19912;-79
2021/11/13 08:07:45;;;;;;;26.50;7.22;;;11.80;99.90;;;;;;4867200;29;20039;-78
2021/11/13 08:10:12;;;;;;;16.85;5.97;;;11.80;99.90;;;;;;4861110;29;20026;-78
2021/11/13 08:12:39;;;;;;;11.02;6.07;;;11.90;99.90;;;;;;4864735;29;20072;-78
2021/11/13 08:15:06;;;;;;;10.80;5.70;;;11.90;99.90;;;;;;4864805;29;20387;-79
2021/11/13 08:17:31;;;;;;;13.32;5.97;;;11.90;99.90;;;;;;4865056;29;20033;-79
2021/11/13 08:19:57;;;;;;;13.50;6.50;;;12.00;99.90;;;;;;4864598;29;20037;-79
2021/11/13 08:22:23;;;;;;;16.25;5.30;;;12.10;99.90;;;;;;4864354;29;20063;-79
2021/11/13 08:24:49;;;;;;;21.17;5.82;;;12.10;99.90;;;;;;4864718;29;20037;-79
2021/11/13 08:27:14;;;;;;;12.45;5.35;;;12.10;99.90;;;;;;4864881;29;20511;-78
2021/11/13 08:29:40;;;;;;;11.40;5.22;;;12.10;99.90;;;;;;4880858;29;20040;-79
2021/11/13 08:32:06;;;;;;;8.73;4.25;;;12.20;99.90;;;;;;4880930;29;20028;-78
2021/11/13 08:34:33;;;;;;;7.25;5.18;;;12.20;99.90;;;;;;4864622;29;20021;-79
2021/11/13 08:36:59;;;;;;;9.10;4.82;;;12.20;99.90;;;;;;4880940;29;20394;-80
2021/11/13 08:39:25;;;;;;;17.98;6.07;;;12.30;99.90;;;;;;4880535;29;20053;-79
2021/11/13 08:41:51;;;;;;;8.35;5.25;;;12.30;99.90;;;;;;4864503;29;20032;-79
2021/11/13 08:44:17;;;;;;;16.60;5.93;;;12.30;99.90;;;;;;4878378;29;20553;-78
2021/11/13 08:46:43;;;;;;;17.80;6.03;;;12.30;99.90;;;;;;4863563;29;20172;-78
2021/11/13 08:49:09;;;;;;;16.30;5.47;;;12.40;99.90;;;;;;4856698;29;20068;-82
2021/11/13 08:51:35;;;;;;;9.95;5.55;;;12.50;99.90;;;;;;4882636;29;20534;-84
2021/11/13 08:54:01;;;;;;;10.55;4.93;;;12.50;99.90;;;;;;4879859;29;20529;-83
2021/11/13 08:56:29;;;;;;;13.32;5.55;;;12.60;99.90;;;;;;4882449;29;20029;-82
2021/11/13 08:58:55;;;;;;;12.25;5.78;;;12.60;99.90;;;;;;4881970;29;20509;-83
2021/11/13 09:01:25;;;;;;;7.72;5.20;;;12.60;99.90;;;;;;4865754;29;20052;-83
2021/11/13 09:03:52;;;;;;;10.88;5.38;;;12.60;99.90;;;;;;4900393;29;20060;-82
2021/11/13 09:06:21;;;;;;;11.32;5.05;;;12.50;99.90;;;;;;4903134;29;20040;-83
2021/11/13 09:08:48;;;;;;;14.77;5.18;;;12.60;99.90;;;;;;4900762;29;20062;-82
2021/11/13 09:11:18;;;;;;;14.73;5.28;;;12.70;99.90;;;;;;4903543;29;20096;-83
2021/11/13 09:13:45;;;;;;;9.95;4.55;;;12.70;99.90;;;;;;4886026;29;20041;-82
2021/11/13 09:16:12;;;;;;;15.13;5.05;;;12.80;99.90;;;;;;4887937;29;20044;-82
2021/11/13 09:18:39;;;;;;;16.30;6.35;;;12.90;99.90;;;;;;4889057;29;20025;-82
2021/11/13 09:21:06;;;;;;;11.00;4.95;;;12.90;99.90;;;;;;4911835;29;20013;-82
2021/11/13 09:23:32;;;;;;;16.88;5.18;;;12.90;99.90;;;;;;4888127;29;20060;-79
2021/11/13 09:25:58;;;;;;;9.02;5.18;;;13.00;99.90;;;;;;4903033;29;20093;-79
2021/11/13 09:28:24;;;;;;;12.90;4.97;;;13.00;99.90;;;;;;4904638;29;20017;-77
2021/11/13 09:30:50;;;;;;;10.90;4.43;;;13.10;99.90;;;;;;4885959;29;20017;-81
2021/11/13 09:33:16;;;;;;;13.68;4.93;;;13.20;99.90;;;;;;4904153;29;20025;-79
2021/11/13 09:35:43;;;;;;;8.65;4.28;;;13.20;99.90;;;;;;4904939;29;20013;-82
2021/11/13 09:38:29;;;;;;;7.13;3.97;;;13.30;99.90;;;;;;4919339;29;20075;-81
2021/11/13 09:40:57;;;;;;;13.77;3.92;;;13.20;99.90;;;;;;4897789;29;20076;-84
2021/11/13 09:43:24;;;;;;;;;;;13.20;99.90;;;;;;4905129;29;20017;-87
2021/11/13 09:45:51;;;;;;;12.13;4.53;;;13.20;99.90;;;;;;4917116;29;19900;-78
2021/11/13 09:48:17;;;;;;;13.98;4.15;;;13.20;99.90;;;;;;4904617;29;20065;-78
2021/11/13 09:50:46;;;;;;;7.35;4.13;;;13.10;99.90;;;;;;4896700;29;20025;-79
2021/11/13 09:53:13;;;;;;;14.55;4.50;;;13.10;99.90;;;;;;4888225;29;20029;-77
2021/11/13 09:55:39;;;;;;;13.30;3.88;;;13.10;99.90;;;;;;4903916;29;20029;-79
2021/11/13 09:58:05;;;;;;;6.97;4.05;;;13.20;99.90;;;;;;4888461;29;20041;-82
2021/11/13 10:00:35;;;;;;;7.53;3.85;;;13.20;99.90;;;;;;4902680;29;20025;-80
2021/11/13 10:03:03;;;;;;;10.18;3.90;;;13.40;99.90;;;;;;4892225;29;20033;-82
2021/11/13 10:05:29;;;;;;;8.63;3.63;;;13.50;99.90;;;;;;4907077;29;20065;-80
2021/11/13 10:07:55;;;;;;;6.15;3.47;;;13.60;99.90;;;;;;4903924;29;20025;-81
2021/11/13 10:10:29;;;;;;;8.20;3.50;;;13.60;99.90;;;;;;4884203;29;20021;-82
2021/11/13 10:12:55;;;;;;;8.63;3.85;;;13.80;99.90;;;;;;4899130;29;20025;-80
2021/11/13 10:15:36;;;;;;;16.10;4.30;;;13.80;99.90;;;;;;4902828;29;20031;-83
2021/11/13 10:18:16;;;;;;;6.28;3.25;;;13.90;99.90;;;;;;4877964;29;20041;-80
2021/11/13 10:20:58;;;;;;;6.60;2.97;;;13.90;99.90;;;;;;4879515;29;20033;-84
2021/11/13 10:23:27;;;;;;;7.15;3.25;;;13.90;99.90;;;;;;4867044;29;20089;-85
2021/11/13 10:26:07;;;;;;;8.52;3.67;;;13.70;99.90;;;;;;4867502;29;20502;-85
2021/11/13 10:28:45;;;;;;;7.65;3.13;;;13.50;99.90;;;;;;4884506;29;20037;-85
2021/11/13 10:31:18;;;;;;;8.55;3.53;;;13.30;99.90;;;;;;4866168;29;20112;-84
2021/11/13 10:33:44;;;;;;;4.82;3.05;;;13.30;99.90;;;;;;4864967;29;20076;-85
2021/11/13 10:36:10;;;;;;;8.00;3.45;;;13.40;99.90;;;;;;4864914;29;20037;-83
2021/11/13 10:38:37;;;;;;;8.00;4.07;;;13.50;99.90;;;;;;4881726;29;20490;-84
2021/11/13 10:41:09;;;;;;;8.20;3.83;;;13.50;99.90;;;;;;4863842;29;20565;-84
2021/11/13 10:43:41;;;;;;;8.27;3.85;;;13.60;99.90;;;;;;4881065;29;20029;-84
2021/11/13 10:46:13;;;;;;;10.13;3.58;;;13.70;99.90;;;;;;4864390;29;20128;-84
2021/11/13 10:48:42;;;;;;;8.20;3.65;;;13.70;99.90;;;;;;4863898;29;20610;-84
2021/11/13 10:51:31;;;;;;;8.35;3.42;;;13.70;99.90;;;;;;4863264;29;20029;-83
2021/11/13 10:54:07;;;;;;;6.68;3.28;;;13.60;99.90;;;;;;4863518;29;20025;-83
2021/11/13 10:56:36;;;;;;;13.82;3.70;;;13.60;99.90;;;;;;4862265;29;20032;-84
2021/11/13 10:59:04;;;;;;;4.60;3.15;;;13.70;99.90;;;;;;4862278;29;20395;-84
2021/11/13 11:01:39;;;;;;;16.80;3.40;;;13.70;99.90;;;;;;4874889;29;20108;-84
2021/11/13 11:04:21;;;;;;;7.65;3.30;;;13.80;99.90;;;;;;4861408;29;20036;-82
2021/11/13 11:07:12;;;;;;;10.63;3.33;;;13.70;99.90;;;;;;4864244;29;20029;-83
2021/11/13 11:09:46;;;;;;;9.32;2.67;;;13.60;99.90;;;;;;4868757;29;20514;-83
2021/11/13 11:12:12;;;;;;;3.63;2.15;;;13.50;99.90;;;;;;4871873;29;20038;-83
2021/11/13 11:14:42;;;;;;;7.55;2.25;;;13.50;99.90;;;;;;4876391;29;20029;-84
2021/11/13 11:17:14;;;;;;;5.38;2.97;;;13.50;99.90;;;;;;4862743;29;20036;-81
2021/11/13 11:19:42;;;;;;;5.60;2.97;;;13.50;99.90;;;;;;4880588;29;20029;-82
2021/11/13 11:22:12;;;;;;;9.00;3.55;;;13.50;99.90;;;;;;4862358;29;20021;-82
2021/11/13 11:24:42;;;;;;;8.15;3.47;;;13.40;99.90;;;;;;4863313;29;20040;-82
2021/11/13 11:27:16;;;;;;;13.70;3.90;;;13.40;99.90;;;;;;4858883;29;20072;-78
2021/11/13 11:29:53;;;;;;;8.20;3.25;;;13.50;99.90;;;;;;4883334;29;20033;-80
2021/11/13 11:32:23;;;;;;;5.93;3.85;;;13.40;99.90;;;;;;4866117;29;20045;-84
2021/11/13 11:34:50;;;;;;;3.92;3.25;;;13.40;99.90;;;;;;4863826;29;20029;-83
2021/11/13 11:37:27;;;;;;;10.63;4.03;;;13.50;99.90;;;;;;4875576;29;20088;-81
2021/11/13 11:40:00;;;;;;;14.40;3.58;;;13.60;99.90;;;;;;4875277;29;20037;-83
2021/11/13 11:42:27;;;;;;;13.90;3.53;;;13.70;99.90;;;;;;4862043;29;20423;-82
2021/11/13 11:44:55;;;;;;;6.85;3.47;;;13.70;99.90;;;;;;4864267;29;20044;-84
2021/11/13 11:47:22;;;;;;;12.25;3.47;;;13.70;99.90;;;;;;4864242;29;20506;-83
2021/11/13 11:49:54;;;;;;;13.43;4.28;;;13.70;99.90;;;;;;4879598;29;20044;-82
2021/11/13 11:52:21;;;;;;;10.00;4.38;;;13.60;99.90;;;;;;4866138;29;20132;-82
2021/11/13 11:54:49;;;;;;;9.02;4.55;;;13.60;99.90;;;;;;4866710;29;20025;-83
2021/11/13 11:57:15;;;;;;;;;;;13.60;99.90;;;;;;4864344;29;20021;-85
2021/11/13 11:59:42;;;;;;;5.63;3.90;;;13.70;99.90;;;;;;4873736;29;19911;-84
2021/11/13 12:02:12;;;;;;;6.93;4.40;;;13.70;99.90;;;;;;4866102;29;20029;-82
2021/11/13 12:04:38;;;;;;;15.75;4.30;;;13.70;99.90;;;;;;4877457;29;20452;-84
2021/11/13 12:07:05;;;;;;;10.45;4.28;;;13.70;99.90;;;;;;4864612;29;20462;-83
2021/11/13 12:09:31;;;;;;;9.40;4.22;;;13.70;99.90;;;;;;4865238;29;20033;-84
2021/11/13 12:12:18;;;;;;;13.73;5.35;;;13.60;99.90;;;;;;4883245;29;20025;-84
2021/11/13 12:14:45;;;;;;;8.77;4.03;;;13.50;99.90;;;;;;4866552;29;20025;-84
2021/11/13 12:17:36;;;;;;;10.25;5.20;;;13.50;99.90;;;;;;4866564;29;20033;-84
2021/11/13 12:20:05;;;;;;;16.58;5.00;;;13.50;99.90;;;;;;4865932;29;20021;-84
2021/11/13 12:22:56;;;;;;;10.63;4.60;;;13.60;99.90;;;;;;4876876;29;20064;-84
2021/11/13 12:25:56;;;;;;;9.95;4.93;;;13.60;99.90;;;;;;4865076;29;20036;-85
2021/11/13 12:28:23;;;;;;;9.18;4.68;;;13.60;99.90;;;;;;4883903;29;20382;-85
2021/11/13 12:30:54;;;;;;;9.32;5.22;;;13.70;99.90;;;;;;4866638;29;20056;-85
2021/11/13 12:33:28;;;;;;;9.25;5.53;;;13.80;99.90;;;;;;4881120;29;20558;-85
2021/11/13 12:36:12;;;;;;;11.00;5.10;;;13.90;99.90;;;;;;4864400;29;20037;-86
2021/11/13 12:38:38;;;;;;;6.63;4.70;;;14.10;99.90;;;;;;4883958;29;20085;-86
2021/11/13 12:41:16;;;;;;;6.53;3.60;;;14.10;99.90;;;;;;4866755;29;20052;-85